createdAt,value
2023-05-24T00:49:50.112Z,99.90
2023-05-24T00:51:54.357Z,99.90
2023-05-24T00:53:59.719Z,99.90
2023-05-24T00:56:04.457Z,99.90
2023-05-24T00:58:16.284Z,99.90
2023-05-24T01:00:20.870Z,99.90
2023-05-24T01:02:25.653Z,99.90
2023-05-24T01:04:33.160Z,99.90
2023-05-24T01:06:49.956Z,99.90
2023-05-24T01:09:04.313Z,99.90
2023-05-24T01:11:11.395Z,99.90
2023-05-24T01:13:19.774Z,99.90
2023-05-24T01:15:26.455Z,99.90
2023-05-24T01:17:33.347Z,99.90
2023-05-24T01:19:53.949Z,99.90
2023-05-24T01:22:03.809Z,99.90
2023-05-24T01:24:14.395Z,99.90
2023-05-24T01:54:06.742Z,99.90
2023-05-24T01:56:10.637Z,99.90
2023-05-24T01:58:14.949Z,99.90
2023-05-24T02:00:20.944Z,99.90
2023-05-24T02:02:25.518Z,99.90
2023-05-24T02:04:30.626Z,99.90
2023-05-24T02:06:35.638Z,99.90
2023-05-24T02:08:39.884Z,99.90
2023-05-24T02:10:45.562Z,99.90
2023-05-24T02:54:15.387Z,99.90
2023-05-24T02:56:23.971Z,99.90
2023-05-24T02:58:30.763Z,99.90
2023-05-24T03:00:39.892Z,99.90
2023-05-24T03:02:49.483Z,99.90
2023-05-24T03:04:57.022Z,99.90
2023-05-24T03:07:05.800Z,99.90
2023-05-24T03:09:15.393Z,99.90
2023-05-24T03:11:26.574Z,99.90
2023-05-24T03:13:36.703Z,99.90
2023-05-24T03:31:25.524Z,99.90
2023-05-24T03:33:31.046Z,99.90
2023-05-24T03:35:36.399Z,99.90
2023-05-24T03:37:43.031Z,99.90
2023-05-24T03:39:51.874Z,99.90
2023-05-24T03:42:03.320Z,99.90
2023-05-24T03:44:11.924Z,99.90
2023-05-24T03:46:20.541Z,99.90
2023-05-24T03:48:29.732Z,99.90
2023-05-24T03:50:39.072Z,99.90
2023-05-24T03:52:49.209Z,99.90
2023-05-24T03:54:57.648Z,99.90
2023-05-24T03:57:06.680Z,99.90
2023-05-24T03:59:15.662Z,99.90
2023-05-24T04:01:33.392Z,99.90
2023-05-24T04:03:47.891Z,99.90
2023-05-24T04:05:56.552Z,99.90
2023-05-24T04:08:06.001Z,99.90
2023-05-24T04:10:14.831Z,99.90
2023-05-24T04:12:23.620Z,99.90
2023-05-24T04:14:34.257Z,99.90
2023-05-24T04:16:44.261Z,99.90
2023-05-24T04:18:58.306Z,99.90
2023-05-24T04:21:06.914Z,99.90
2023-05-24T04:23:18.827Z,99.90
2023-05-24T04:25:28.545Z,99.90
2023-05-24T04:27:41.616Z,99.90
2023-05-24T04:29:52.397Z,99.90
2023-05-24T04:32:02.782Z,99.90
2023-05-24T04:34:16.089Z,99.90
2023-05-24T04:36:25.256Z,99.90
2023-05-24T04:38:34.180Z,99.90
2023-05-24T04:40:42.897Z,99.90
2023-05-24T04:42:52.319Z,99.90
2023-05-24T04:45:01.433Z,99.90
2023-05-24T04:47:10.554Z,99.90
2023-05-24T04:49:27.012Z,99.90
2023-05-24T04:51:40.476Z,99.90
2023-05-24T04:53:56.689Z,99.90
2023-05-24T04:56:06.474Z,99.90
2023-05-24T04:58:15.447Z,99.90
2023-05-24T05:00:25.493Z,99.90
2023-05-24T05:02:34.069Z,99.90
2023-05-24T05:04:44.613Z,99.90
2023-05-24T05:06:53.192Z,99.90
2023-05-24T05:09:01.765Z,99.90
2023-05-24T05:11:11.837Z,99.90
2023-05-24T05:13:20.283Z,99.90
2023-05-24T05:15:32.270Z,99.90
2023-05-24T05:17:41.453Z,99.90
2023-05-24T05:19:57.217Z,99.90
2023-05-24T05:22:10.790Z,99.90
2023-05-24T05:24:27.609Z,99.90
2023-05-24T05:41:52.021Z,99.90
2023-05-24T05:55:21.228Z,99.90
2023-05-24T05:57:35.027Z,99.90
2023-05-24T05:59:46.818Z,99.90
2023-05-24T06:01:57.558Z,99.90
2023-05-24T06:04:07.206Z,99.90
2023-05-24T06:06:17.128Z,99.90
2023-05-24T06:08:27.520Z,99.90
2023-05-24T06:10:36.808Z,99.90
2023-05-24T06:12:48.350Z,99.90
2023-05-24T06:14:59.030Z,99.90
2023-05-24T06:17:13.930Z,99.90
2023-05-24T06:19:23.237Z,99.90
2023-05-24T06:21:35.068Z,99.90
2023-05-24T06:23:47.927Z,99.90
2023-05-24T06:25:59.982Z,99.90
2023-05-24T06:28:30.154Z,99.90
2023-05-24T06:30:45.032Z,99.90
2023-05-24T06:32:58.808Z,99.90
2023-05-24T06:35:08.666Z,99.90
2023-05-24T06:37:21.701Z,99.90
2023-05-24T06:39:30.683Z,99.90
2023-05-24T06:41:44.931Z,99.90
2023-05-24T06:44:01.091Z,99.90
2023-05-24T06:46:11.016Z,99.90
2023-05-24T06:48:20.875Z,99.90
2023-05-24T06:50:30.037Z,99.90
2023-05-24T06:52:41.200Z,99.90
2023-05-24T06:54:51.190Z,99.90
2023-05-24T06:57:01.553Z,99.90
2023-05-24T06:59:14.624Z,99.90
2023-05-24T07:01:25.527Z,99.90
2023-05-24T07:03:34.912Z,99.90
2023-05-24T07:05:43.399Z,99.90
2023-05-24T07:07:53.092Z,99.90
2023-05-24T07:10:02.635Z,99.90
2023-05-24T07:12:11.317Z,99.90
2023-05-24T07:14:22.919Z,99.90
2023-05-24T07:16:31.813Z,99.90
2023-05-24T07:18:43.593Z,99.90
2023-05-24T07:20:52.212Z,99.90
2023-05-24T07:23:02.520Z,99.90
2023-05-24T07:25:11.691Z,99.90
2023-05-24T07:27:22.348Z,99.90
2023-05-24T07:29:39.090Z,99.90
2023-05-24T07:31:48.390Z,99.90
2023-05-24T07:33:58.271Z,99.90
2023-05-24T07:36:08.208Z,99.90
2023-05-24T07:38:16.961Z,99.90
2023-05-24T07:40:26.314Z,99.90
2023-05-24T07:42:36.008Z,99.90
2023-05-24T07:44:47.322Z,99.90
2023-05-24T07:46:57.661Z,99.90
2023-05-24T07:49:07.086Z,99.90
2023-05-24T07:51:16.102Z,99.90
2023-05-24T07:53:26.889Z,99.90
2023-05-24T07:55:36.634Z,99.90
2023-05-24T07:57:48.203Z,99.90
2023-05-24T07:59:59.614Z,99.90
2023-05-24T08:02:13.427Z,99.90
2023-05-24T08:04:22.776Z,99.90
2023-05-24T08:06:34.455Z,99.90
2023-05-24T08:08:43.171Z,99.90
2023-05-24T08:10:52.057Z,99.90
2023-05-24T08:13:01.158Z,99.90
2023-05-24T08:15:19.149Z,99.90
2023-05-24T08:17:29.086Z,99.90
2023-05-24T08:19:38.891Z,99.90
2023-05-24T08:21:48.439Z,99.90
2023-05-24T08:24:01.508Z,99.90
2023-05-24T08:26:13.879Z,99.90
2023-05-24T08:28:23.104Z,99.90
2023-05-24T08:30:37.170Z,99.90
2023-05-24T08:32:46.972Z,99.90
2023-05-24T08:35:03.572Z,99.90
2023-05-24T08:37:16.702Z,99.90
2023-05-24T08:39:27.064Z,99.90
2023-05-24T08:41:39.730Z,99.90
2023-05-24T08:43:48.108Z,99.90
2023-05-24T08:45:58.596Z,99.90
2023-05-24T08:48:07.559Z,99.90
2023-05-24T08:52:38.369Z,99.90
2023-05-24T08:54:49.040Z,99.90
2023-05-24T08:56:58.568Z,99.90
2023-05-24T08:59:07.444Z,99.90
2023-05-24T09:01:19.433Z,99.90
2023-05-24T09:03:28.412Z,99.90
2023-05-24T09:05:36.794Z,99.90
2023-05-24T09:07:46.627Z,99.90
2023-05-24T09:10:01.712Z,99.90
2023-05-24T09:12:16.756Z,99.90
2023-05-24T09:14:30.919Z,99.90
2023-05-24T09:16:42.108Z,99.90
2023-05-24T09:18:52.065Z,99.90
2023-05-24T09:21:00.997Z,99.90
2023-05-24T09:23:10.275Z,99.90
2023-05-24T09:25:20.197Z,99.90
2023-05-24T09:27:29.205Z,99.90
2023-05-24T09:29:41.138Z,99.90
2023-05-24T09:31:52.822Z,99.90
2023-05-24T09:34:01.816Z,99.90
2023-05-24T09:36:11.734Z,99.90
2023-05-24T09:38:24.227Z,99.90
2023-05-24T09:40:34.446Z,99.90
2023-05-24T09:42:43.295Z,99.90
2023-05-24T09:44:52.848Z,99.90
2023-05-24T09:47:08.073Z,99.80
2023-05-24T09:49:16.937Z,99.40
2023-05-24T09:51:26.206Z,99.80
2023-05-24T09:53:35.481Z,98.70
2023-05-24T09:55:43.537Z,98.40
2023-05-24T09:57:55.592Z,98.50
2023-05-24T10:00:04.412Z,98.30
2023-05-24T10:02:22.897Z,98.40
2023-05-24T10:04:40.231Z,97.90
2023-05-24T10:06:49.737Z,97.60
2023-05-24T10:08:58.995Z,97.50
2023-05-24T10:11:09.144Z,97.10
2023-05-24T10:13:19.360Z,95.80
2023-05-24T10:15:28.722Z,95.40
2023-05-24T10:17:39.129Z,95.20
2023-05-24T10:19:47.728Z,95.40
2023-05-24T10:21:55.938Z,95.20
2023-05-24T10:24:09.090Z,95.30
2023-05-24T10:26:20.395Z,95.10
2023-05-24T10:28:28.838Z,94.80
2023-05-24T10:30:39.802Z,94.30
2023-05-24T10:32:50.935Z,93.60
2023-05-24T10:34:59.959Z,93.40
2023-05-24T10:37:08.992Z,92.80
2023-05-24T10:39:17.784Z,93.90
2023-05-24T10:41:26.981Z,92.30
2023-05-24T10:43:36.483Z,92.40
2023-05-24T10:45:48.070Z,92.10
2023-05-24T10:47:58.811Z,92.20
2023-05-24T10:50:08.655Z,91.40
2023-05-24T10:52:17.087Z,92.60
2023-05-24T10:54:25.653Z,92.90
2023-05-24T10:56:34.396Z,91.60
2023-05-24T10:59:03.800Z,92.10
2023-05-24T11:01:14.958Z,91.40
2023-05-24T11:03:28.068Z,91.30
2023-05-24T11:05:37.285Z,90.80
2023-05-24T11:07:48.168Z,90.20
2023-05-24T11:09:59.423Z,89.60
2023-05-24T11:12:09.560Z,89.80
2023-05-24T11:14:18.379Z,90.50
2023-05-24T11:16:43.094Z,87.90
2023-05-24T11:19:02.381Z,87.50
2023-05-24T11:21:10.880Z,87.00
2023-05-24T11:23:20.615Z,85.80
2023-05-24T11:25:30.306Z,83.20
2023-05-24T11:27:38.566Z,82.60
2023-05-24T11:29:47.399Z,82.30
2023-05-24T11:31:56.234Z,80.90
2023-05-24T11:34:08.320Z,79.50
2023-05-24T11:36:17.362Z,76.70
2023-05-24T11:38:26.087Z,77.10
2023-05-24T11:40:34.876Z,78.50
2023-05-24T11:42:44.542Z,78.60
2023-05-24T11:44:54.579Z,77.90
2023-05-24T11:47:06.310Z,74.40
2023-05-24T11:49:18.662Z,72.80
2023-05-24T11:51:32.922Z,71.40
2023-05-24T11:53:42.286Z,71.40
2023-05-24T11:55:51.311Z,70.60
2023-05-24T11:58:02.934Z,71.30
2023-05-24T12:00:18.659Z,70.80
2023-05-24T12:02:26.375Z,70.60
2023-05-24T12:04:38.901Z,70.30
2023-05-24T12:06:47.868Z,71.70
2023-05-24T12:08:56.738Z,72.80
2023-05-24T12:11:07.155Z,73.80
2023-05-24T12:13:27.104Z,73.60
2023-05-24T12:15:37.005Z,74.80
2023-05-24T12:17:46.164Z,75.90
2023-05-24T12:19:58.161Z,75.50
2023-05-24T12:22:11.464Z,76.40
2023-05-24T12:24:21.298Z,77.50
2023-05-24T12:26:29.964Z,77.60
2023-05-24T12:28:42.560Z,77.60
2023-05-24T12:30:51.103Z,78.60
2023-05-24T12:33:01.088Z,77.30
2023-05-24T12:35:16.888Z,76.70
2023-05-24T12:37:28.138Z,75.90
2023-05-24T12:39:37.178Z,76.50
2023-05-24T12:41:50.138Z,77.60
2023-05-24T12:44:00.356Z,79.30
2023-05-24T12:46:09.910Z,79.60
2023-05-24T12:48:21.990Z,81.20
2023-05-24T12:50:34.021Z,81.80
2023-05-24T12:52:43.266Z,81.60
2023-05-24T12:54:53.222Z,80.80
2023-05-24T12:57:05.313Z,80.60
2023-05-24T12:59:14.059Z,80.80
2023-05-24T13:01:22.961Z,79.40
2023-05-24T13:03:32.684Z,78.70
2023-05-24T13:05:43.510Z,78.60
2023-05-24T13:07:52.948Z,77.10
2023-05-24T13:10:05.368Z,77.90
2023-05-24T13:12:15.828Z,76.70
2023-05-24T13:14:25.563Z,77.20
2023-05-24T13:16:34.730Z,77.40
2023-05-24T13:18:43.914Z,78.20
2023-05-24T13:20:56.729Z,80.20
2023-05-24T13:23:06.417Z,80.40
2023-05-24T13:25:16.210Z,81.10
2023-05-24T13:27:25.483Z,81.20
2023-05-24T13:29:45.579Z,80.40
2023-05-24T13:31:58.355Z,80.70
2023-05-24T13:34:08.321Z,80.50
2023-05-24T13:36:21.474Z,80.00
2023-05-24T13:38:30.489Z,78.30
2023-05-24T13:40:41.771Z,78.60
2023-05-24T13:42:51.151Z,78.50
2023-05-24T13:45:00.986Z,76.90
2023-05-24T13:47:10.767Z,77.80
2023-05-24T13:49:19.611Z,78.80
2023-05-24T13:51:29.998Z,78.60
2023-05-24T13:53:40.301Z,78.40
2023-05-24T13:55:53.018Z,77.70
2023-05-24T13:58:03.411Z,77.90
2023-05-24T14:00:16.011Z,78.70
2023-05-24T14:02:25.587Z,77.80
2023-05-24T14:04:35.415Z,77.60
2023-05-24T14:06:46.641Z,77.80
2023-05-24T14:08:58.452Z,76.40
2023-05-24T14:11:07.532Z,75.00
2023-05-24T14:13:51.558Z,73.50
2023-05-24T14:15:46.850Z,72.10
2023-05-24T14:17:56.450Z,73.00
2023-05-24T14:20:05.294Z,73.40
2023-05-24T14:22:22.062Z,70.70
2023-05-24T14:24:30.766Z,71.70
2023-05-24T14:26:40.690Z,72.40
2023-05-24T14:28:48.686Z,72.70
2023-05-24T14:30:58.563Z,71.80
2023-05-24T14:33:08.738Z,71.90
2023-05-24T14:35:17.448Z,73.20
2023-05-24T14:37:32.355Z,71.20
2023-05-24T14:39:45.701Z,71.30
2023-05-24T14:41:56.041Z,70.20
2023-05-24T14:44:11.228Z,69.70
2023-05-24T14:46:26.609Z,67.50
2023-05-24T14:48:35.202Z,68.40
2023-05-24T14:50:45.260Z,67.10
2023-05-24T14:52:56.131Z,67.00
2023-05-24T14:55:05.064Z,65.90
2023-05-24T14:57:19.043Z,65.50
2023-05-24T14:59:28.299Z,65.20
2023-05-24T15:01:37.137Z,64.40
2023-05-24T15:03:46.948Z,63.70
2023-05-24T15:05:58.436Z,62.70
2023-05-24T15:08:10.308Z,62.20
2023-05-24T15:10:22.610Z,61.60
2023-05-24T15:12:31.296Z,61.80
2023-05-24T15:14:39.929Z,62.20
2023-05-24T15:16:51.055Z,63.50
2023-05-24T15:19:00.492Z,64.70
2023-05-24T15:21:09.537Z,65.50
2023-05-24T15:23:21.403Z,66.00
2023-05-24T15:25:34.337Z,67.40
2023-05-24T15:27:44.005Z,67.40
2023-05-24T15:29:55.564Z,64.00
2023-05-24T15:32:06.679Z,63.90
2023-05-24T15:34:15.320Z,63.40
2023-05-24T15:36:23.983Z,63.70
2023-05-24T15:38:35.105Z,63.20
2023-05-24T15:40:45.879Z,64.00
2023-05-24T15:42:55.448Z,63.20
2023-05-24T15:45:07.543Z,61.80
2023-05-24T15:47:17.335Z,61.90
2023-05-24T15:49:27.696Z,62.00
2023-05-24T15:53:51.165Z,63.40
2023-05-24T15:56:01.637Z,64.60
2023-05-24T15:58:11.639Z,65.10
2023-05-24T16:00:20.886Z,65.80
2023-05-24T16:02:31.889Z,66.70
2023-05-24T16:04:41.823Z,66.00
2023-05-24T16:06:50.953Z,65.10
2023-05-24T16:09:07.230Z,65.90
2023-05-24T16:11:18.726Z,65.80
2023-05-24T16:13:29.197Z,64.20
2023-05-24T16:15:39.106Z,63.90
2023-05-24T16:17:48.357Z,62.60
2023-05-24T16:19:57.690Z,61.20
2023-05-24T16:22:06.665Z,61.50
2023-05-24T16:24:18.950Z,61.20
2023-05-24T16:26:28.917Z,60.80
2023-05-24T16:28:37.502Z,59.80
2023-05-24T16:30:47.778Z,60.20
2023-05-24T16:32:55.918Z,60.40
2023-05-24T16:35:04.203Z,60.30
2023-05-24T16:37:12.594Z,60.70
2023-05-24T16:39:22.804Z,60.30
2023-05-24T16:41:39.514Z,59.30
2023-05-24T16:43:48.855Z,59.80
2023-05-24T16:45:57.790Z,59.40
2023-05-24T16:48:08.106Z,57.10
2023-05-24T16:50:19.364Z,55.60
2023-05-24T16:52:28.906Z,55.70
2023-05-24T16:54:40.919Z,55.50
2023-05-24T16:56:50.926Z,55.00
2023-05-24T16:58:59.732Z,55.40
2023-05-24T17:01:07.806Z,56.40
2023-05-24T17:03:18.185Z,57.30
2023-05-24T17:05:26.642Z,58.20
2023-05-24T17:07:35.508Z,59.80
2023-05-24T17:09:50.178Z,61.50
2023-05-24T17:11:59.177Z,61.90
2023-05-24T17:14:11.618Z,62.60
2023-05-24T17:16:21.476Z,63.10
2023-05-24T17:18:33.935Z,64.60
2023-05-24T17:20:44.665Z,65.50
2023-05-24T17:22:57.796Z,66.50
2023-05-24T17:25:08.903Z,67.70
2023-05-24T17:27:20.010Z,68.60
2023-05-24T17:29:31.591Z,69.20
2023-05-24T17:31:41.616Z,70.50
2023-05-24T17:33:50.330Z,71.10
2023-05-24T17:35:59.494Z,72.20
2023-05-24T17:38:08.190Z,72.80
2023-05-24T17:40:19.776Z,73.10
2023-05-24T17:42:28.709Z,73.50
2023-05-24T17:44:37.016Z,74.30
2023-05-24T17:46:44.578Z,74.80
2023-05-24T17:48:53.710Z,74.80
2023-05-24T17:51:02.814Z,73.90
2023-05-24T17:53:23.077Z,73.40
2023-05-24T17:55:41.375Z,73.40
2023-05-24T17:57:49.785Z,74.30
2023-05-24T17:59:58.666Z,74.90
2023-05-24T18:02:06.874Z,75.20
2023-05-24T18:04:13.346Z,75.50
2023-05-24T18:06:21.693Z,76.50
2023-05-24T18:08:31.076Z,77.40
2023-05-24T18:10:42.812Z,77.70
2023-05-24T18:12:52.137Z,79.40
2023-05-24T18:15:00.481Z,80.50
2023-05-24T18:17:09.704Z,81.30
2023-05-24T18:19:19.539Z,82.00
2023-05-24T18:21:34.921Z,82.60
2023-05-24T18:23:44.271Z,83.00
2023-05-24T18:26:01.720Z,83.10
2023-05-24T18:28:15.048Z,84.10
2023-05-24T18:30:23.165Z,85.80
2023-05-24T18:32:35.868Z,85.70
2023-05-24T18:34:44.591Z,86.20
2023-05-24T18:36:53.989Z,87.00
2023-05-24T18:39:01.491Z,87.60
2023-05-24T18:41:14.150Z,88.00
2023-05-24T18:43:23.392Z,88.50
2023-05-24T18:45:32.018Z,88.60
2023-05-24T18:47:41.886Z,88.60
2023-05-24T18:49:50.225Z,88.60
2023-05-24T18:51:58.984Z,89.40
2023-05-24T18:54:02.714Z,90.30
2023-05-24T18:56:07.967Z,90.80
2023-05-24T18:58:11.330Z,91.40
2023-05-24T19:00:15.395Z,92.10
2023-05-24T19:02:19.384Z,92.50
2023-05-24T19:04:22.976Z,93.10
2023-05-24T19:06:26.991Z,93.60
2023-05-24T19:08:30.964Z,94.40
2023-05-24T19:10:34.540Z,94.90
2023-05-24T19:12:39.767Z,95.50
2023-05-24T19:14:43.467Z,96.20
2023-05-24T19:16:47.735Z,96.90
2023-05-24T19:18:51.380Z,97.40
2023-05-24T19:20:55.323Z,98.10
2023-05-24T19:22:59.356Z,98.80
2023-05-24T19:25:03.282Z,99.50
2023-05-24T19:27:07.851Z,99.90
2023-05-24T19:29:13.221Z,99.90
2023-05-24T19:31:17.587Z,99.90
2023-05-24T19:33:21.392Z,99.90
2023-05-24T19:35:25.392Z,99.90
2023-05-24T19:37:31.842Z,99.90
2023-05-24T19:39:35.897Z,99.90
2023-05-24T19:41:39.771Z,99.90
2023-05-24T19:43:43.639Z,99.90
2023-05-24T19:45:51.918Z,99.90
2023-05-24T19:47:55.987Z,99.90
2023-05-24T19:50:00.125Z,99.90
2023-05-24T19:52:04.522Z,99.90
2023-05-24T19:54:09.395Z,99.90
2023-05-24T19:56:12.996Z,99.90
2023-05-24T19:58:16.860Z,99.90
2023-05-24T20:00:21.462Z,99.90
2023-05-24T20:02:26.743Z,99.90
2023-05-24T20:04:30.427Z,99.90
2023-05-24T20:06:34.369Z,99.90
2023-05-24T20:08:38.058Z,99.90
2023-05-24T20:10:47.348Z,99.90
2023-05-24T20:12:50.919Z,99.90
2023-05-24T20:14:54.460Z,99.90
2023-05-24T20:16:58.253Z,99.90
2023-05-24T20:19:03.515Z,99.90
2023-05-24T20:21:07.482Z,99.90
2023-05-24T20:23:11.489Z,99.90
2023-05-24T20:25:15.096Z,99.90
2023-05-24T20:27:18.771Z,99.90
2023-05-24T20:29:22.359Z,99.90
2023-05-24T20:31:26.013Z,99.90
2023-05-24T20:33:29.682Z,99.90
2023-05-24T20:35:34.798Z,99.90
2023-05-24T20:37:38.759Z,99.90
2023-05-24T20:39:42.486Z,99.90
2023-05-24T20:41:46.081Z,99.90
2023-05-24T20:43:51.574Z,99.90
2023-05-24T20:45:55.590Z,99.90
2023-05-24T20:47:59.550Z,99.90
2023-05-24T20:50:04.099Z,99.90
2023-05-24T20:52:09.619Z,99.90
2023-05-24T20:54:14.133Z,99.90
2023-05-24T20:56:18.117Z,99.90
2023-05-24T20:58:21.914Z,99.90
2023-05-24T21:00:25.628Z,99.90
2023-05-24T21:02:29.688Z,99.90
2023-05-24T21:04:33.450Z,99.90
2023-05-24T21:06:42.701Z,99.90
2023-05-24T21:08:47.729Z,99.90
2023-05-24T21:10:51.833Z,99.90
2023-05-24T21:12:55.352Z,99.90
2023-05-24T21:14:58.961Z,99.90
2023-05-24T21:17:02.476Z,99.90
2023-05-24T21:19:06.117Z,99.90
2023-05-24T21:21:09.753Z,99.90
2023-05-24T21:23:18.862Z,99.90
2023-05-24T21:25:23.933Z,99.90
2023-05-24T21:27:27.858Z,99.90
2023-05-24T21:29:31.539Z,99.90
2023-05-24T21:31:36.080Z,99.90
2023-05-24T21:33:43.003Z,99.90
2023-05-24T21:35:46.552Z,99.90
2023-05-24T21:37:57.924Z,99.90
2023-05-24T21:40:01.478Z,99.90
2023-05-24T21:42:07.145Z,99.90
2023-05-24T21:44:10.794Z,99.90
2023-05-24T21:46:14.403Z,99.90
2023-05-24T21:48:17.943Z,99.90
2023-05-24T21:50:21.554Z,99.90
2023-05-24T21:52:25.070Z,99.90
2023-05-24T21:54:30.804Z,99.90
2023-05-24T21:56:34.616Z,99.90
2023-05-24T21:58:39.712Z,99.90
2023-05-24T22:00:43.548Z,99.90
2023-05-24T22:02:47.535Z,99.90
2023-05-24T22:04:51.161Z,99.90
2023-05-24T22:06:54.759Z,99.90
2023-05-24T22:09:02.204Z,99.90
2023-05-24T22:11:05.961Z,99.90
2023-05-24T22:13:09.564Z,99.90
2023-05-24T22:15:14.690Z,99.90
2023-05-24T22:17:19.366Z,99.90
2023-05-24T22:19:38.880Z,99.90
2023-05-24T23:49:01.704Z,99.90
2023-05-24T23:51:05.901Z,99.90
2023-05-24T23:53:09.350Z,99.90
2023-05-24T23:55:12.950Z,99.90
2023-05-24T23:57:17.616Z,99.90
2023-05-24T23:59:21.108Z,99.90
